sensor_id;sensor_type;location;lat;lon;timestamp;P1;durP1;ratioP1;P2;durP2;ratioP2
70444;SDS011;57902;49.638;11.070;2022-12-29T00:01:29;3.85;;;1.33;;
70444;SDS011;57902;49.638;11.070;2022-12-29T00:03:56;2.47;;;1.20;;
70444;SDS011;57902;49.638;11.070;2022-12-29T00:06:22;6.88;;;1.33;;
70444;SDS011;57902;49.638;11.070;2022-12-29T00:08:49;2.97;;;1.10;;
70444;SDS011;57902;49.638;11.070;2022-12-29T00:11:17;7.85;;;1.45;;
70444;SDS011;57902;49.638;11.070;2022-12-29T00:13:45;2.13;;;1.10;;
70444;SDS011;57902;49.638;11.070;2022-12-29T00:16:31;2.55;;;1.20;;
70444;SDS011;57902;49.638;11.070;2022-12-29T00:18:59;4.68;;;1.20;;
70444;SDS011;57902;49.638;11.070;2022-12-29T00:21:26;2.80;;;1.05;;
70444;SDS011;57902;49.638;11.070;2022-12-29T00:24:13;3.78;;;1.30;;
70444;SDS011;57902;49.638;11.070;2022-12-29T00:26:53;3.83;;;1.20;;
70444;SDS011;57902;49.638;11.070;2022-12-29T00:29:39;3.08;;;1.20;;
70444;SDS011;57902;49.638;11.070;2022-12-29T00:32:24;3.33;;;1.20;;
70444;SDS011;57902;49.638;11.070;2022-12-29T00:35:09;3.20;;;1.10;;
70444;SDS011;57902;49.638;11.070;2022-12-29T00:37:41;3.55;;;1.30;;
70444;SDS011;57902;49.638;11.070;2022-12-29T00:40:28;2.40;;;1.10;;
70444;SDS011;57902;49.638;11.070;2022-12-29T00:43:13;2.85;;;1.20;;
70444;SDS011;57902;49.638;11.070;2022-12-29T00:45:57;4.03;;;1.10;;
70444;SDS011;57902;49.638;11.070;2022-12-29T00:48:24;3.58;;;1.23;;
70444;SDS011;57902;49.638;11.070;2022-12-29T00:51:09;3.72;;;1.20;;
70444;SDS011;57902;49.638;11.070;2022-12-29T00:53:35;4.72;;;1.20;;
70444;SDS011;57902;49.638;11.070;2022-12-29T00:56:02;4.38;;;1.40;;
70444;SDS011;57902;49.638;11.070;2022-12-29T00:58:29;3.13;;;1.20;;
70444;SDS011;57902;49.638;11.070;2022-12-29T01:01:06;3.75;;;1.30;;
70444;SDS011;57902;49.638;11.070;2022-12-29T01:03:34;3.78;;;1.20;;
70444;SDS011;57902;49.638;11.070;2022-12-29T01:06:03;4.72;;;1.30;;
70444;SDS011;57902;49.638;11.070;2022-12-29T01:08:31;4.07;;;1.35;;
70444;SDS011;57902;49.638;11.070;2022-12-29T01:10:58;2.65;;;1.20;;
70444;SDS011;57902;49.638;11.070;2022-12-29T01:13:36;3.78;;;1.35;;
70444;SDS011;57902;49.638;11.070;2022-12-29T01:16:05;3.25;;;1.30;;
70444;SDS011;57902;49.638;11.070;2022-12-29T01:18:32;4.18;;;1.27;;
70444;SDS011;57902;49.638;11.070;2022-12-29T01:21:00;3.58;;;1.40;;
70444;SDS011;57902;49.638;11.070;2022-12-29T01:23:29;3.75;;;1.35;;
70444;SDS011;57902;49.638;11.070;2022-12-29T01:25:57;3.42;;;1.40;;
70444;SDS011;57902;49.638;11.070;2022-12-29T01:28:23;3.10;;;1.25;;
70444;SDS011;57902;49.638;11.070;2022-12-29T01:30:51;7.40;;;1.10;;
70444;SDS011;57902;49.638;11.070;2022-12-29T01:33:18;3.33;;;1.20;;
70444;SDS011;57902;49.638;11.070;2022-12-29T01:35:44;3.67;;;1.30;;
70444;SDS011;57902;49.638;11.070;2022-12-29T01:38:10;3.30;;;1.00;;
70444;SDS011;57902;49.638;11.070;2022-12-29T01:40:42;7.85;;;1.30;;
70444;SDS011;57902;49.638;11.070;2022-12-29T01:43:10;3.92;;;1.23;;
70444;SDS011;57902;49.638;11.070;2022-12-29T01:45:44;2.78;;;1.10;;
70444;SDS011;57902;49.638;11.070;2022-12-29T01:48:15;2.80;;;1.10;;
70444;SDS011;57902;49.638;11.070;2022-12-29T01:50:50;2.97;;;1.20;;
70444;SDS011;57902;49.638;11.070;2022-12-29T01:53:24;3.08;;;1.10;;
70444;SDS011;57902;49.638;11.070;2022-12-29T01:55:55;2.88;;;1.10;;
70444;SDS011;57902;49.638;11.070;2022-12-29T01:58:29;3.17;;;1.35;;
70444;SDS011;57902;49.638;11.070;2022-12-29T02:00:59;4.85;;;1.10;;
70444;SDS011;57902;49.638;11.070;2022-12-29T02:03:26;4.90;;;1.20;;
70444;SDS011;57902;49.638;11.070;2022-12-29T02:05:56;4.40;;;1.55;;
70444;SDS011;57902;49.638;11.070;2022-12-29T02:08:28;3.55;;;1.02;;
70444;SDS011;57902;49.638;11.070;2022-12-29T02:10:56;3.45;;;1.02;;
70444;SDS011;57902;49.638;11.070;2022-12-29T02:13:24;2.90;;;1.10;;
70444;SDS011;57902;49.638;11.070;2022-12-29T02:15:59;3.10;;;1.20;;
70444;SDS011;57902;49.638;11.070;2022-12-29T02:18:51;2.75;;;1.00;;
70444;SDS011;57902;49.638;11.070;2022-12-29T02:32:59;3.05;;;1.13;;
70444;SDS011;57902;49.638;11.070;2022-12-29T02:38:55;2.45;;;1.02;;
70444;SDS011;57902;49.638;11.070;2022-12-29T02:41:33;2.17;;;1.00;;
70444;SDS011;57902;49.638;11.070;2022-12-29T02:44:16;3.78;;;1.20;;
70444;SDS011;57902;49.638;11.070;2022-12-29T02:46:54;4.95;;;1.08;;
70444;SDS011;57902;49.638;11.070;2022-12-29T02:49:33;3.67;;;1.10;;
70444;SDS011;57902;49.638;11.070;2022-12-29T02:52:09;6.07;;;1.85;;
70444;SDS011;57902;49.638;11.070;2022-12-29T02:54:41;1.67;;;0.85;;
70444;SDS011;57902;49.638;11.070;2022-12-29T02:57:26;3.80;;;1.10;;
70444;SDS011;57902;49.638;11.070;2022-12-29T03:00:00;5.82;;;1.13;;
70444;SDS011;57902;49.638;11.070;2022-12-29T03:08:30;2.85;;;1.25;;
70444;SDS011;57902;49.638;11.070;2022-12-29T03:11:06;6.75;;;1.08;;
70444;SDS011;57902;49.638;11.070;2022-12-29T03:14:02;2.58;;;1.10;;
70444;SDS011;57902;49.638;11.070;2022-12-29T03:16:57;3.38;;;1.05;;
70444;SDS011;57902;49.638;11.070;2022-12-29T03:19:30;5.15;;;1.15;;
70444;SDS011;57902;49.638;11.070;2022-12-29T03:22:02;2.03;;;1.05;;
70444;SDS011;57902;49.638;11.070;2022-12-29T03:24:51;3.60;;;1.10;;
70444;SDS011;57902;49.638;11.070;2022-12-29T03:27:25;4.75;;;1.30;;
70444;SDS011;57902;49.638;11.070;2022-12-29T03:29:57;5.22;;;1.20;;
70444;SDS011;57902;49.638;11.070;2022-12-29T03:32:35;6.28;;;1.25;;
70444;SDS011;57902;49.638;11.070;2022-12-29T03:35:05;4.32;;;1.30;;
70444;SDS011;57902;49.638;11.070;2022-12-29T03:37:41;4.13;;;1.30;;
70444;SDS011;57902;49.638;11.070;2022-12-29T03:40:10;2.80;;;1.15;;
70444;SDS011;57902;49.638;11.070;2022-12-29T03:42:37;5.05;;;1.40;;
70444;SDS011;57902;49.638;11.070;2022-12-29T03:45:05;5.53;;;1.30;;
70444;SDS011;57902;49.638;11.070;2022-12-29T03:47:33;2.78;;;1.10;;
70444;SDS011;57902;49.638;11.070;2022-12-29T03:49:59;4.57;;;1.10;;
70444;SDS011;57902;49.638;11.070;2022-12-29T03:52:26;3.60;;;1.20;;
70444;SDS011;57902;49.638;11.070;2022-12-29T03:54:52;2.22;;;1.02;;
70444;SDS011;57902;49.638;11.070;2022-12-29T03:57:19;2.78;;;1.17;;
70444;SDS011;57902;49.638;11.070;2022-12-29T03:59:45;3.97;;;1.30;;
70444;SDS011;57902;49.638;11.070;2022-12-29T04:02:12;5.20;;;1.40;;
70444;SDS011;57902;49.638;11.070;2022-12-29T04:04:39;4.25;;;1.13;;
70444;SDS011;57902;49.638;11.070;2022-12-29T04:07:06;3.25;;;1.08;;
70444;SDS011;57902;49.638;11.070;2022-12-29T04:09:32;3.28;;;1.42;;
70444;SDS011;57902;49.638;11.070;2022-12-29T04:11:59;2.75;;;0.90;;
70444;SDS011;57902;49.638;11.070;2022-12-29T04:14:29;7.03;;;1.27;;
70444;SDS011;57902;49.638;11.070;2022-12-29T04:16:55;2.67;;;1.05;;
70444;SDS011;57902;49.638;11.070;2022-12-29T04:19:22;3.38;;;1.05;;
70444;SDS011;57902;49.638;11.070;2022-12-29T04:21:51;3.58;;;1.20;;
70444;SDS011;57902;49.638;11.070;2022-12-29T04:24:17;4.78;;;1.48;;
70444;SDS011;57902;49.638;11.070;2022-12-29T04:26:44;2.17;;;1.00;;
70444;SDS011;57902;49.638;11.070;2022-12-29T04:29:10;3.80;;;1.13;;
70444;SDS011;57902;49.638;11.070;2022-12-29T04:31:37;5.13;;;1.13;;
70444;SDS011;57902;49.638;11.070;2022-12-29T04:34:06;4.13;;;1.05;;
70444;SDS011;57902;49.638;11.070;2022-12-29T04:36:33;3.50;;;1.00;;
70444;SDS011;57902;49.638;11.070;2022-12-29T04:38:59;2.40;;;1.10;;
70444;SDS011;57902;49.638;11.070;2022-12-29T04:41:26;3.28;;;1.17;;
70444;SDS011;57902;49.638;11.070;2022-12-29T04:43:52;4.75;;;1.20;;
70444;SDS011;57902;49.638;11.070;2022-12-29T04:46:19;4.10;;;1.13;;
70444;SDS011;57902;49.638;11.070;2022-12-29T04:48:45;3.20;;;1.27;;
70444;SDS011;57902;49.638;11.070;2022-12-29T04:51:12;3.92;;;1.13;;
70444;SDS011;57902;49.638;11.070;2022-12-29T04:53:39;2.95;;;1.20;;
70444;SDS011;57902;49.638;11.070;2022-12-29T04:56:06;3.63;;;1.35;;
70444;SDS011;57902;49.638;11.070;2022-12-29T04:58:33;2.08;;;1.05;;
70444;SDS011;57902;49.638;11.070;2022-12-29T05:00:59;3.67;;;1.20;;
70444;SDS011;57902;49.638;11.070;2022-12-29T05:03:25;3.40;;;1.25;;
70444;SDS011;57902;49.638;11.070;2022-12-29T05:05:53;2.53;;;1.00;;
70444;SDS011;57902;49.638;11.070;2022-12-29T05:08:20;7.40;;;1.10;;
70444;SDS011;57902;49.638;11.070;2022-12-29T05:10:53;3.53;;;0.88;;
70444;SDS011;57902;49.638;11.070;2022-12-29T05:13:19;3.20;;;1.10;;
70444;SDS011;57902;49.638;11.070;2022-12-29T05:15:52;4.47;;;1.10;;
70444;SDS011;57902;49.638;11.070;2022-12-29T05:18:20;3.42;;;1.10;;
70444;SDS011;57902;49.638;11.070;2022-12-29T05:20:46;4.70;;;1.10;;
70444;SDS011;57902;49.638;11.070;2022-12-29T05:23:13;2.85;;;1.00;;
70444;SDS011;57902;49.638;11.070;2022-12-29T05:25:40;3.03;;;1.20;;
70444;SDS011;57902;49.638;11.070;2022-12-29T05:28:10;3.42;;;1.10;;
70444;SDS011;57902;49.638;11.070;2022-12-29T05:30:36;4.72;;;1.10;;
70444;SDS011;57902;49.638;11.070;2022-12-29T05:33:02;3.20;;;1.00;;
70444;SDS011;57902;49.638;11.070;2022-12-29T05:35:29;3.88;;;1.13;;
70444;SDS011;57902;49.638;11.070;2022-12-29T05:37:55;4.07;;;1.02;;
70444;SDS011;57902;49.638;11.070;2022-12-29T05:40:22;3.17;;;1.13;;
70444;SDS011;57902;49.638;11.070;2022-12-29T05:42:51;4.45;;;1.27;;
70444;SDS011;57902;49.638;11.070;2022-12-29T05:45:17;2.97;;;1.05;;
70444;SDS011;57902;49.638;11.070;2022-12-29T05:47:44;2.78;;;1.00;;
70444;SDS011;57902;49.638;11.070;2022-12-29T05:50:10;4.00;;;1.20;;
70444;SDS011;57902;49.638;11.070;2022-12-29T05:52:37;3.25;;;1.13;;
70444;SDS011;57902;49.638;11.070;2022-12-29T05:55:03;2.92;;;1.13;;
70444;SDS011;57902;49.638;11.070;2022-12-29T05:57:30;2.40;;;1.02;;
70444;SDS011;57902;49.638;11.070;2022-12-29T05:59:56;2.75;;;1.10;;
70444;SDS011;57902;49.638;11.070;2022-12-29T06:02:23;2.88;;;1.20;;
70444;SDS011;57902;49.638;11.070;2022-12-29T06:04:49;3.17;;;1.25;;
70444;SDS011;57902;49.638;11.070;2022-12-29T06:07:16;4.10;;;1.15;;
70444;SDS011;57902;49.638;11.070;2022-12-29T06:09:42;3.47;;;1.02;;
70444;SDS011;57902;49.638;11.070;2022-12-29T06:12:09;1.98;;;0.90;;
70444;SDS011;57902;49.638;11.070;2022-12-29T06:14:35;3.22;;;1.30;;
70444;SDS011;57902;49.638;11.070;2022-12-29T06:17:03;2.45;;;1.08;;
70444;SDS011;57902;49.638;11.070;2022-12-29T06:19:30;3.72;;;1.10;;
70444;SDS011;57902;49.638;11.070;2022-12-29T06:21:56;5.85;;;1.00;;
70444;SDS011;57902;49.638;11.070;2022-12-29T06:24:22;4.22;;;1.10;;
70444;SDS011;57902;49.638;11.070;2022-12-29T06:26:49;3.20;;;1.00;;
70444;SDS011;57902;49.638;11.070;2022-12-29T06:29:15;2.65;;;1.00;;
70444;SDS011;57902;49.638;11.070;2022-12-29T06:31:46;3.28;;;1.10;;
70444;SDS011;57902;49.638;11.070;2022-12-29T06:34:13;4.93;;;1.77;;
70444;SDS011;57902;49.638;11.070;2022-12-29T06:36:39;3.40;;;1.20;;
70444;SDS011;57902;49.638;11.070;2022-12-29T06:39:05;4.00;;;1.17;;
70444;SDS011;57902;49.638;11.070;2022-12-29T06:41:32;4.10;;;1.20;;
70444;SDS011;57902;49.638;11.070;2022-12-29T06:43:58;3.60;;;1.20;;
70444;SDS011;57902;49.638;11.070;2022-12-29T06:46:25;5.90;;;1.30;;
70444;SDS011;57902;49.638;11.070;2022-12-29T06:48:53;2.60;;;0.95;;
70444;SDS011;57902;49.638;11.070;2022-12-29T06:51:20;6.90;;;1.20;;
70444;SDS011;57902;49.638;11.070;2022-12-29T06:53:46;2.97;;;1.10;;
70444;SDS011;57902;49.638;11.070;2022-12-29T06:56:13;2.65;;;1.15;;
70444;SDS011;57902;49.638;11.070;2022-12-29T06:58:39;4.00;;;1.00;;
70444;SDS011;57902;49.638;11.070;2022-12-29T07:01:05;5.38;;;1.17;;
70444;SDS011;57902;49.638;11.070;2022-12-29T07:03:32;2.70;;;1.00;;
70444;SDS011;57902;49.638;11.070;2022-12-29T07:05:59;4.82;;;1.20;;
70444;SDS011;57902;49.638;11.070;2022-12-29T07:08:25;7.55;;;1.20;;
70444;SDS011;57902;49.638;11.070;2022-12-29T07:10:52;4.22;;;1.30;;
70444;SDS011;57902;49.638;11.070;2022-12-29T07:13:18;3.60;;;1.17;;
70444;SDS011;57902;49.638;11.070;2022-12-29T07:15:44;2.92;;;1.17;;
70444;SDS011;57902;49.638;11.070;2022-12-29T07:18:11;3.47;;;1.20;;
70444;SDS011;57902;49.638;11.070;2022-12-29T07:20:37;2.80;;;1.00;;
70444;SDS011;57902;49.638;11.070;2022-12-29T07:23:04;12.10;;;1.35;;
70444;SDS011;57902;49.638;11.070;2022-12-29T07:25:30;3.72;;;1.02;;
70444;SDS011;57902;49.638;11.070;2022-12-29T07:27:56;3.15;;;0.98;;
70444;SDS011;57902;49.638;11.070;2022-12-29T07:30:23;2.83;;;1.13;;
70444;SDS011;57902;49.638;11.070;2022-12-29T07:32:49;5.28;;;1.20;;
70444;SDS011;57902;49.638;11.070;2022-12-29T07:35:16;3.78;;;1.25;;
70444;SDS011;57902;49.638;11.070;2022-12-29T07:37:44;1.98;;;1.00;;
70444;SDS011;57902;49.638;11.070;2022-12-29T07:40:11;4.82;;;1.50;;
70444;SDS011;57902;49.638;11.070;2022-12-29T07:42:39;4.00;;;1.10;;
70444;SDS011;57902;49.638;11.070;2022-12-29T07:45:05;4.18;;;1.30;;
70444;SDS011;57902;49.638;11.070;2022-12-29T07:47:32;2.63;;;0.90;;
70444;SDS011;57902;49.638;11.070;2022-12-29T07:49:59;3.17;;;1.10;;
70444;SDS011;57902;49.638;11.070;2022-12-29T07:52:25;3.63;;;1.08;;
70444;SDS011;57902;49.638;11.070;2022-12-29T07:54:52;5.32;;;1.02;;
70444;SDS011;57902;49.638;11.070;2022-12-29T07:57:18;3.05;;;1.30;;
70444;SDS011;57902;49.638;11.070;2022-12-29T07:59:44;5.38;;;1.30;;
70444;SDS011;57902;49.638;11.070;2022-12-29T08:02:11;4.40;;;1.15;;
70444;SDS011;57902;49.638;11.070;2022-12-29T08:04:38;3.65;;;1.27;;
70444;SDS011;57902;49.638;11.070;2022-12-29T08:07:04;3.92;;;1.10;;
70444;SDS011;57902;49.638;11.070;2022-12-29T08:09:31;2.88;;;0.98;;
70444;SDS011;57902;49.638;11.070;2022-12-29T08:11:57;3.22;;;1.00;;
70444;SDS011;57902;49.638;11.070;2022-12-29T08:14:23;3.17;;;1.23;;
70444;SDS011;57902;49.638;11.070;2022-12-29T08:16:50;4.10;;;1.00;;
70444;SDS011;57902;49.638;11.070;2022-12-29T08:19:16;2.38;;;1.00;;
70444;SDS011;57902;49.638;11.070;2022-12-29T08:21:43;2.88;;;1.15;;
70444;SDS011;57902;49.638;11.070;2022-12-29T08:24:09;2.00;;;1.00;;
70444;SDS011;57902;49.638;11.070;2022-12-29T08:26:36;5.03;;;1.20;;
70444;SDS011;57902;49.638;11.070;2022-12-29T08:29:02;3.13;;;1.13;;
70444;SDS011;57902;49.638;11.070;2022-12-29T08:31:31;4.75;;;1.20;;
70444;SDS011;57902;49.638;11.070;2022-12-29T08:33:58;4.72;;;1.20;;
70444;SDS011;57902;49.638;11.070;2022-12-29T08:36:26;3.58;;;1.00;;
70444;SDS011;57902;49.638;11.070;2022-12-29T08:38:52;3.42;;;1.02;;
70444;SDS011;57902;49.638;11.070;2022-12-29T08:41:19;2.80;;;1.15;;
70444;SDS011;57902;49.638;11.070;2022-12-29T08:43:46;3.75;;;1.20;;
70444;SDS011;57902;49.638;11.070;2022-12-29T08:46:13;3.72;;;1.00;;
70444;SDS011;57902;49.638;11.070;2022-12-29T08:48:40;4.00;;;0.85;;
70444;SDS011;57902;49.638;11.070;2022-12-29T08:51:06;2.53;;;1.00;;
70444;SDS011;57902;49.638;11.070;2022-12-29T08:53:33;3.45;;;0.90;;
70444;SDS011;57902;49.638;11.070;2022-12-29T08:56:00;3.05;;;1.10;;
70444;SDS011;57902;49.638;11.070;2022-12-29T08:58:31;2.30;;;0.93;;
70444;SDS011;57902;49.638;11.070;2022-12-29T09:00:58;3.10;;;1.10;;
70444;SDS011;57902;49.638;11.070;2022-12-29T09:03:25;5.68;;;1.10;;
70444;SDS011;57902;49.638;11.070;2022-12-29T09:06:12;11.40;;;1.25;;
70444;SDS011;57902;49.638;11.070;2022-12-29T09:08:39;2.15;;;1.23;;
70444;SDS011;57902;49.638;11.070;2022-12-29T09:11:08;5.35;;;1.10;;
70444;SDS011;57902;49.638;11.070;2022-12-29T09:13:37;4.47;;;1.55;;
70444;SDS011;57902;49.638;11.070;2022-12-29T09:16:04;3.58;;;1.40;;
70444;SDS011;57902;49.638;11.070;2022-12-29T09:18:31;7.97;;;1.60;;
70444;SDS011;57902;49.638;11.070;2022-12-29T09:21:01;9.63;;;1.45;;
70444;SDS011;57902;49.638;11.070;2022-12-29T09:23:30;8.40;;;1.92;;
70444;SDS011;57902;49.638;11.070;2022-12-29T09:25:57;3.90;;;1.10;;
70444;SDS011;57902;49.638;11.070;2022-12-29T09:28:24;3.70;;;1.27;;
70444;SDS011;57902;49.638;11.070;2022-12-29T09:30:50;8.68;;;1.80;;
70444;SDS011;57902;49.638;11.070;2022-12-29T09:33:17;6.25;;;2.10;;
70444;SDS011;57902;49.638;11.070;2022-12-29T09:35:45;6.53;;;1.73;;
70444;SDS011;57902;49.638;11.070;2022-12-29T09:38:16;3.33;;;1.27;;
70444;SDS011;57902;49.638;11.070;2022-12-29T09:40:44;10.63;;;2.33;;
70444;SDS011;57902;49.638;11.070;2022-12-29T09:51:45;3.13;;;1.20;;
70444;SDS011;57902;49.638;11.070;2022-12-29T09:56:41;11.75;;;2.03;;
70444;SDS011;57902;49.638;11.070;2022-12-29T09:59:14;3.30;;;1.40;;
70444;SDS011;57902;49.638;11.070;2022-12-29T10:01:46;3.17;;;1.20;;
70444;SDS011;57902;49.638;11.070;2022-12-29T10:04:22;7.10;;;2.10;;
70444;SDS011;57902;49.638;11.070;2022-12-29T10:15:40;2.85;;;1.05;;
70444;SDS011;57902;49.638;11.070;2022-12-29T10:18:45;7.53;;;1.55;;
70444;SDS011;57902;49.638;11.070;2022-12-29T10:21:37;2.38;;;1.10;;
70444;SDS011;57902;49.638;11.070;2022-12-29T10:23:59;3.88;;;1.33;;
70444;SDS011;57902;49.638;11.070;2022-12-29T10:26:36;3.85;;;1.45;;
70444;SDS011;57902;49.638;11.070;2022-12-29T10:29:08;2.95;;;1.10;;
70444;SDS011;57902;49.638;11.070;2022-12-29T10:34:48;8.38;;;1.80;;
70444;SDS011;57902;49.638;11.070;2022-12-29T10:37:38;9.75;;;1.30;;
70444;SDS011;57902;49.638;11.070;2022-12-29T10:43:30;27.73;;;2.28;;
70444;SDS011;57902;49.638;11.070;2022-12-29T10:46:02;5.68;;;1.88;;
70444;SDS011;57902;49.638;11.070;2022-12-29T10:48:33;4.38;;;1.10;;
70444;SDS011;57902;49.638;11.070;2022-12-29T10:51:02;4.63;;;1.20;;
70444;SDS011;57902;49.638;11.070;2022-12-29T10:56:04;5.57;;;1.63;;
70444;SDS011;57902;49.638;11.070;2022-12-29T10:58:46;4.30;;;1.50;;
70444;SDS011;57902;49.638;11.070;2022-12-29T11:01:16;5.40;;;1.35;;
70444;SDS011;57902;49.638;11.070;2022-12-29T11:03:54;4.57;;;1.70;;
70444;SDS011;57902;49.638;11.070;2022-12-29T11:06:47;5.30;;;1.25;;
70444;SDS011;57902;49.638;11.070;2022-12-29T11:09:16;7.97;;;1.60;;
70444;SDS011;57902;49.638;11.070;2022-12-29T11:12:20;3.55;;;1.20;;
70444;SDS011;57902;49.638;11.070;2022-12-29T11:17:56;3.40;;;1.10;;
70444;SDS011;57902;49.638;11.070;2022-12-29T11:22:56;3.33;;;0.95;;
70444;SDS011;57902;49.638;11.070;2022-12-29T11:25:23;6.03;;;1.70;;
70444;SDS011;57902;49.638;11.070;2022-12-29T11:30:28;5.95;;;2.35;;
70444;SDS011;57902;49.638;11.070;2022-12-29T11:32:56;6.13;;;2.00;;
70444;SDS011;57902;49.638;11.070;2022-12-29T11:35:34;4.20;;;1.30;;
70444;SDS011;57902;49.638;11.070;2022-12-29T11:38:18;4.20;;;1.70;;
70444;SDS011;57902;49.638;11.070;2022-12-29T11:40:48;7.45;;;1.67;;
70444;SDS011;57902;49.638;11.070;2022-12-29T11:43:21;4.57;;;1.40;;
70444;SDS011;57902;49.638;11.070;2022-12-29T11:46:04;6.63;;;1.42;;
70444;SDS011;57902;49.638;11.070;2022-12-29T11:48:40;6.70;;;1.50;;
70444;SDS011;57902;49.638;11.070;2022-12-29T11:51:08;3.05;;;1.10;;
70444;SDS011;57902;49.638;11.070;2022-12-29T11:56:14;3.45;;;1.17;;
70444;SDS011;57902;49.638;11.070;2022-12-29T11:58:43;6.60;;;1.15;;
70444;SDS011;57902;49.638;11.070;2022-12-29T12:01:17;5.55;;;1.20;;
70444;SDS011;57902;49.638;11.070;2022-12-29T12:03:52;6.88;;;1.48;;
70444;SDS011;57902;49.638;11.070;2022-12-29T12:06:27;2.83;;;1.10;;
70444;SDS011;57902;49.638;11.070;2022-12-29T12:08:56;3.92;;;1.33;;
70444;SDS011;57902;49.638;11.070;2022-12-29T12:11:36;3.92;;;1.30;;
70444;SDS011;57902;49.638;11.070;2022-12-29T12:14:23;5.93;;;1.30;;
70444;SDS011;57902;49.638;11.070;2022-12-29T12:16:55;6.57;;;1.30;;
70444;SDS011;57902;49.638;11.070;2022-12-29T12:19:38;5.68;;;1.38;;
70444;SDS011;57902;49.638;11.070;2022-12-29T12:24:55;4.63;;;1.67;;
70444;SDS011;57902;49.638;11.070;2022-12-29T12:27:36;8.93;;;2.60;;
70444;SDS011;57902;49.638;11.070;2022-12-29T12:30:17;4.53;;;1.60;;
70444;SDS011;57902;49.638;11.070;2022-12-29T12:33:31;3.83;;;1.40;;
70444;SDS011;57902;49.638;11.070;2022-12-29T12:35:45;4.75;;;1.70;;
70444;SDS011;57902;49.638;11.070;2022-12-29T12:41:17;4.38;;;1.17;;
70444;SDS011;57902;49.638;11.070;2022-12-29T12:44:00;3.45;;;1.40;;
70444;SDS011;57902;49.638;11.070;2022-12-29T12:52:30;5.28;;;1.20;;
70444;SDS011;57902;49.638;11.070;2022-12-29T12:58:17;4.22;;;1.10;;
70444;SDS011;57902;49.638;11.070;2022-12-29T13:03:39;4.10;;;1.17;;
70444;SDS011;57902;49.638;11.070;2022-12-29T13:08:48;2.13;;;0.82;;
70444;SDS011;57902;49.638;11.070;2022-12-29T13:16:41;4.75;;;0.80;;
70444;SDS011;57902;49.638;11.070;2022-12-29T13:21:57;3.35;;;1.13;;
70444;SDS011;57902;49.638;11.070;2022-12-29T13:30:02;2.75;;;1.00;;
70444;SDS011;57902;49.638;11.070;2022-12-29T13:32:47;2.72;;;1.00;;
70444;SDS011;57902;49.638;11.070;2022-12-29T13:38:22;3.47;;;1.20;;
70444;SDS011;57902;49.638;11.070;2022-12-29T13:40:55;6.03;;;1.35;;
70444;SDS011;57902;49.638;11.070;2022-12-29T13:43:25;4.50;;;1.38;;
70444;SDS011;57902;49.638;11.070;2022-12-29T13:46:07;22.30;;;3.42;;
70444;SDS011;57902;49.638;11.070;2022-12-29T13:48:43;7.82;;;1.55;;
70444;SDS011;57902;49.638;11.070;2022-12-29T13:51:17;6.03;;;1.40;;
70444;SDS011;57902;49.638;11.070;2022-12-29T14:00:00;5.15;;;1.40;;
70444;SDS011;57902;49.638;11.070;2022-12-29T14:07:46;3.45;;;1.40;;
70444;SDS011;57902;49.638;11.070;2022-12-29T14:10:27;5.53;;;1.70;;
70444;SDS011;57902;49.638;11.070;2022-12-29T14:13:14;4.65;;;1.55;;
70444;SDS011;57902;49.638;11.070;2022-12-29T14:15:50;7.05;;;1.70;;
70444;SDS011;57902;49.638;11.070;2022-12-29T14:18:19;10.27;;;1.75;;
70444;SDS011;57902;49.638;11.070;2022-12-29T14:28:34;6.80;;;2.10;;
70444;SDS011;57902;49.638;11.070;2022-12-29T14:31:02;7.28;;;2.53;;
70444;SDS011;57902;49.638;11.070;2022-12-29T14:33:32;7.55;;;1.83;;
70444;SDS011;57902;49.638;11.070;2022-12-29T14:36:21;11.18;;;2.42;;
70444;SDS011;57902;49.638;11.070;2022-12-29T14:38:59;3.63;;;1.55;;
70444;SDS011;57902;49.638;11.070;2022-12-29T14:46:49;7.18;;;1.88;;
70444;SDS011;57902;49.638;11.070;2022-12-29T14:49:21;8.77;;;2.30;;
70444;SDS011;57902;49.638;11.070;2022-12-29T14:51:55;5.75;;;1.77;;
70444;SDS011;57902;49.638;11.070;2022-12-29T14:56:58;7.07;;;1.73;;
70444;SDS011;57902;49.638;11.070;2022-12-29T14:59:27;5.93;;;2.00;;
70444;SDS011;57902;49.638;11.070;2022-12-29T15:01:55;4.60;;;1.65;;
70444;SDS011;57902;49.638;11.070;2022-12-29T15:04:27;4.30;;;1.80;;
70444;SDS011;57902;49.638;11.070;2022-12-29T15:06:57;5.10;;;1.70;;
70444;SDS011;57902;49.638;11.070;2022-12-29T15:09:28;4.85;;;1.52;;
70444;SDS011;57902;49.638;11.070;2022-12-29T15:12:21;5.15;;;1.88;;
70444;SDS011;57902;49.638;11.070;2022-12-29T15:14:52;7.45;;;1.80;;
70444;SDS011;57902;49.638;11.070;2022-12-29T15:17:24;6.97;;;2.33;;
70444;SDS011;57902;49.638;11.070;2022-12-29T15:19:54;6.93;;;2.42;;
70444;SDS011;57902;49.638;11.070;2022-12-29T15:22:22;8.68;;;2.00;;
70444;SDS011;57902;49.638;11.070;2022-12-29T15:24:50;6.45;;;1.90;;
70444;SDS011;57902;49.638;11.070;2022-12-29T15:27:22;11.07;;;3.08;;
70444;SDS011;57902;49.638;11.070;2022-12-29T15:29:58;4.90;;;1.98;;
70444;SDS011;57902;49.638;11.070;2022-12-29T15:32:28;7.40;;;2.03;;
70444;SDS011;57902;49.638;11.070;2022-12-29T15:35:16;5.15;;;1.63;;
70444;SDS011;57902;49.638;11.070;2022-12-29T15:37:49;7.70;;;1.70;;
70444;SDS011;57902;49.638;11.070;2022-12-29T15:40:29;12.73;;;3.40;;
70444;SDS011;57902;49.638;11.070;2022-12-29T15:45:42;8.98;;;2.30;;
70444;SDS011;57902;49.638;11.070;2022-12-29T15:48:13;6.80;;;1.90;;
70444;SDS011;57902;49.638;11.070;2022-12-29T15:50:44;8.30;;;2.20;;
70444;SDS011;57902;49.638;11.070;2022-12-29T15:53:12;8.45;;;2.20;;
70444;SDS011;57902;49.638;11.070;2022-12-29T15:56:07;6.78;;;2.30;;
70444;SDS011;57902;49.638;11.070;2022-12-29T15:58:40;8.27;;;2.25;;
70444;SDS011;57902;49.638;11.070;2022-12-29T16:01:19;10.45;;;2.70;;
70444;SDS011;57902;49.638;11.070;2022-12-29T16:03:53;11.07;;;2.53;;
70444;SDS011;57902;49.638;11.070;2022-12-29T16:11:52;6.25;;;2.13;;
70444;SDS011;57902;49.638;11.070;2022-12-29T16:14:29;7.22;;;1.90;;
70444;SDS011;57902;49.638;11.070;2022-12-29T16:17:00;4.22;;;1.60;;
70444;SDS011;57902;49.638;11.070;2022-12-29T16:19:34;7.15;;;2.08;;
70444;SDS011;57902;49.638;11.070;2022-12-29T16:22:08;5.68;;;1.75;;
70444;SDS011;57902;49.638;11.070;2022-12-29T16:24:38;8.23;;;3.83;;
70444;SDS011;57902;49.638;11.070;2022-12-29T16:27:19;6.97;;;1.90;;
70444;SDS011;57902;49.638;11.070;2022-12-29T16:29:49;4.13;;;1.90;;
70444;SDS011;57902;49.638;11.070;2022-12-29T16:32:24;5.28;;;2.25;;
70444;SDS011;57902;49.638;11.070;2022-12-29T16:35:44;4.32;;;1.73;;
70444;SDS011;57902;49.638;11.070;2022-12-29T16:38:19;5.38;;;1.90;;
70444;SDS011;57902;49.638;11.070;2022-12-29T16:40:51;3.70;;;1.52;;
70444;SDS011;57902;49.638;11.070;2022-12-29T16:43:37;6.82;;;1.92;;
70444;SDS011;57902;49.638;11.070;2022-12-29T16:46:15;5.35;;;1.80;;
70444;SDS011;57902;49.638;11.070;2022-12-29T16:48:46;4.82;;;1.80;;
70444;SDS011;57902;49.638;11.070;2022-12-29T16:51:17;4.20;;;1.80;;
70444;SDS011;57902;49.638;11.070;2022-12-29T16:53:52;6.30;;;1.92;;
70444;SDS011;57902;49.638;11.070;2022-12-29T16:56:21;6.28;;;2.30;;
70444;SDS011;57902;49.638;11.070;2022-12-29T16:59:16;4.82;;;2.10;;
70444;SDS011;57902;49.638;11.070;2022-12-29T17:01:51;7.72;;;2.67;;
70444;SDS011;57902;49.638;11.070;2022-12-29T17:04:18;7.05;;;2.33;;
70444;SDS011;57902;49.638;11.070;2022-12-29T17:06:44;5.35;;;2.00;;
70444;SDS011;57902;49.638;11.070;2022-12-29T17:09:21;6.80;;;2.58;;
70444;SDS011;57902;49.638;11.070;2022-12-29T17:11:50;7.07;;;2.38;;